sensor_id;sensor_type;location;lat;lon;timestamp;temperature;humidity
21891;DHT22;11110;52.386;16.940;2023-04-06T00:00:18;16.60;33.90
21891;DHT22;11110;52.386;16.940;2023-04-06T00:03:08;16.50;33.90
21891;DHT22;11110;52.386;16.940;2023-04-06T00:05:37;16.50;34.10
21891;DHT22;11110;52.386;16.940;2023-04-06T00:08:05;16.40;34.10
21891;DHT22;11110;52.386;16.940;2023-04-06T00:10:35;16.40;34.40
21891;DHT22;11110;52.386;16.940;2023-04-06T00:13:04;16.40;34.80
21891;DHT22;11110;52.386;16.940;2023-04-06T00:15:33;16.30;34.70
21891;DHT22;11110;52.386;16.940;2023-04-06T00:18:02;16.30;35.00
21891;DHT22;11110;52.386;16.940;2023-04-06T00:20:32;16.30;34.90
21891;DHT22;11110;52.386;16.940;2023-04-06T00:23:00;16.30;35.20
21891;DHT22;11110;52.386;16.940;2023-04-06T00:25:29;16.30;34.80
21891;DHT22;11110;52.386;16.940;2023-04-06T00:27:58;16.30;34.40
21891;DHT22;11110;52.386;16.940;2023-04-06T00:30:27;16.20;34.70
21891;DHT22;11110;52.386;16.940;2023-04-06T00:32:55;16.30;35.10
21891;DHT22;11110;52.386;16.940;2023-04-06T00:35:24;16.30;34.80
21891;DHT22;11110;52.386;16.940;2023-04-06T00:37:53;16.30;34.90
21891;DHT22;11110;52.386;16.940;2023-04-06T00:40:21;16.20;35.10
21891;DHT22;11110;52.386;16.940;2023-04-06T00:42:50;16.30;35.20
21891;DHT22;11110;52.386;16.940;2023-04-06T00:45:20;16.20;35.20
21891;DHT22;11110;52.386;16.940;2023-04-06T00:47:48;16.20;35.20
21891;DHT22;11110;52.386;16.940;2023-04-06T00:50:17;16.20;35.30
21891;DHT22;11110;52.386;16.940;2023-04-06T00:52:46;16.10;35.10
21891;DHT22;11110;52.386;16.940;2023-04-06T00:55:17;16.10;35.10
21891;DHT22;11110;52.386;16.940;2023-04-06T00:57:45;16.10;35.30
21891;DHT22;11110;52.386;16.940;2023-04-06T01:00:15;16.10;35.40
21891;DHT22;11110;52.386;16.940;2023-04-06T01:02:46;16.10;35.50
21891;DHT22;11110;52.386;16.940;2023-04-06T01:05:19;16.00;35.60
21891;DHT22;11110;52.386;16.940;2023-04-06T01:07:54;16.00;35.70
21891;DHT22;11110;52.386;16.940;2023-04-06T01:10:27;16.00;35.80
21891;DHT22;11110;52.386;16.940;2023-04-06T01:13:18;16.00;35.70
21891;DHT22;11110;52.386;16.940;2023-04-06T01:15:53;15.90;35.50
21891;DHT22;11110;52.386;16.940;2023-04-06T01:18:46;15.90;35.50
21891;DHT22;11110;52.386;16.940;2023-04-06T01:21:29;15.90;35.60
21891;DHT22;11110;52.386;16.940;2023-04-06T01:24:22;15.90;35.90
21891;DHT22;11110;52.386;16.940;2023-04-06T01:27:09;15.90;36.10
21891;DHT22;11110;52.386;16.940;2023-04-06T01:29:52;15.90;36.30
21891;DHT22;11110;52.386;16.940;2023-04-06T01:32:41;15.80;36.30
21891;DHT22;11110;52.386;16.940;2023-04-06T01:35:13;15.80;36.20
21891;DHT22;11110;52.386;16.940;2023-04-06T01:37:50;15.80;36.40
21891;DHT22;11110;52.386;16.940;2023-04-06T01:40:27;15.70;36.40
21891;DHT22;11110;52.386;16.940;2023-04-06T01:42:56;15.60;36.30
21891;DHT22;11110;52.386;16.940;2023-04-06T01:45:31;15.70;36.40
21891;DHT22;11110;52.386;16.940;2023-04-06T01:48:10;15.70;36.30
21891;DHT22;11110;52.386;16.940;2023-04-06T01:50:39;15.70;36.40
21891;DHT22;11110;52.386;16.940;2023-04-06T01:53:10;15.70;36.30
21891;DHT22;11110;52.386;16.940;2023-04-06T01:55:41;15.70;36.40
21891;DHT22;11110;52.386;16.940;2023-04-06T01:58:23;15.70;36.50
21891;DHT22;11110;52.386;16.940;2023-04-06T02:00:52;15.60;36.50
21891;DHT22;11110;52.386;16.940;2023-04-06T02:03:21;15.60;36.50
21891;DHT22;11110;52.386;16.940;2023-04-06T02:05:58;15.60;36.60
21891;DHT22;11110;52.386;16.940;2023-04-06T02:08:32;15.60;36.90
21891;DHT22;11110;52.386;16.940;2023-04-06T02:11:02;15.60;37.00
21891;DHT22;11110;52.386;16.940;2023-04-06T02:13:38;15.60;36.70
21891;DHT22;11110;52.386;16.940;2023-04-06T02:16:08;15.60;36.70
21891;DHT22;11110;52.386;16.940;2023-04-06T02:18:37;15.60;36.80
21891;DHT22;11110;52.386;16.940;2023-04-06T02:21:05;15.50;36.70
21891;DHT22;11110;52.386;16.940;2023-04-06T02:23:34;15.60;36.70
21891;DHT22;11110;52.386;16.940;2023-04-06T02:26:04;15.50;36.70
21891;DHT22;11110;52.386;16.940;2023-04-06T02:28:33;15.50;36.50
21891;DHT22;11110;52.386;16.940;2023-04-06T02:31:01;15.50;36.60
21891;DHT22;11110;52.386;16.940;2023-04-06T02:33:30;15.50;36.70
21891;DHT22;11110;52.386;16.940;2023-04-06T02:35:59;15.50;36.70
21891;DHT22;11110;52.386;16.940;2023-04-06T02:38:29;15.50;36.90
21891;DHT22;11110;52.386;16.940;2023-04-06T02:41:00;15.50;37.60
21891;DHT22;11110;52.386;16.940;2023-04-06T02:43:31;15.40;36.90
21891;DHT22;11110;52.386;16.940;2023-04-06T02:46:13;15.40;36.80
21891;DHT22;11110;52.386;16.940;2023-04-06T02:48:42;15.40;37.00
21891;DHT22;11110;52.386;16.940;2023-04-06T02:51:11;15.40;36.80
21891;DHT22;11110;52.386;16.940;2023-04-06T02:53:43;15.40;36.60
21891;DHT22;11110;52.386;16.940;2023-04-06T02:56:13;15.40;36.60
21891;DHT22;11110;52.386;16.940;2023-04-06T02:58:48;15.40;36.70
21891;DHT22;11110;52.386;16.940;2023-04-06T03:01:17;15.50;37.00
21891;DHT22;11110;52.386;16.940;2023-04-06T03:03:47;15.40;36.60
21891;DHT22;11110;52.386;16.940;2023-04-06T03:06:22;15.40;36.70
21891;DHT22;11110;52.386;16.940;2023-04-06T03:08:55;15.40;36.90
21891;DHT22;11110;52.386;16.940;2023-04-06T03:11:24;15.40;36.70
21891;DHT22;11110;52.386;16.940;2023-04-06T03:13:55;15.50;36.70
21891;DHT22;11110;52.386;16.940;2023-04-06T03:16:23;15.40;36.80
21891;DHT22;11110;52.386;16.940;2023-04-06T03:18:52;15.40;36.60
21891;DHT22;11110;52.386;16.940;2023-04-06T03:21:21;15.40;36.40
21891;DHT22;11110;52.386;16.940;2023-04-06T03:23:52;15.40;36.40
21891;DHT22;11110;52.386;16.940;2023-04-06T03:26:21;15.40;36.10
21891;DHT22;11110;52.386;16.940;2023-04-06T03:28:52;15.50;36.40
21891;DHT22;11110;52.386;16.940;2023-04-06T03:31:27;15.40;36.70
21891;DHT22;11110;52.386;16.940;2023-04-06T03:33:59;15.40;36.40
21891;DHT22;11110;52.386;16.940;2023-04-06T03:36:34;15.10;36.30
21891;DHT22;11110;52.386;16.940;2023-04-06T03:39:04;15.40;36.70
21891;DHT22;11110;52.386;16.940;2023-04-06T03:41:36;15.40;36.80
21891;DHT22;11110;52.386;16.940;2023-04-06T03:44:16;15.30;36.80
21891;DHT22;11110;52.386;16.940;2023-04-06T03:46:46;15.30;36.80
21891;DHT22;11110;52.386;16.940;2023-04-06T03:49:15;15.30;36.90
21891;DHT22;11110;52.386;16.940;2023-04-06T03:51:47;15.20;36.80
21891;DHT22;11110;52.386;16.940;2023-04-06T03:54:16;15.30;36.70
21891;DHT22;11110;52.386;16.940;2023-04-06T03:56:44;15.30;37.00
21891;DHT22;11110;52.386;16.940;2023-04-06T03:59:13;15.30;37.10
21891;DHT22;11110;52.386;16.940;2023-04-06T04:01:42;15.20;37.10
21891;DHT22;11110;52.386;16.940;2023-04-06T04:04:12;15.20;37.30
21891;DHT22;11110;52.386;16.940;2023-04-06T04:06:41;15.20;37.30
21891;DHT22;11110;52.386;16.940;2023-04-06T04:09:10;15.20;37.30
21891;DHT22;11110;52.386;16.940;2023-04-06T04:11:38;15.10;37.40
21891;DHT22;11110;52.386;16.940;2023-04-06T04:14:07;15.20;37.50
21891;DHT22;11110;52.386;16.940;2023-04-06T04:16:35;15.10;37.40
21891;DHT22;11110;52.386;16.940;2023-04-06T04:19:06;15.00;37.40
21891;DHT22;11110;52.386;16.940;2023-04-06T04:21:42;15.10;38.20
21891;DHT22;11110;52.386;16.940;2023-04-06T04:24:13;15.10;37.70
21891;DHT22;11110;52.386;16.940;2023-04-06T04:26:42;15.00;37.70
21891;DHT22;11110;52.386;16.940;2023-04-06T04:29:11;15.00;37.70
21891;DHT22;11110;52.386;16.940;2023-04-06T04:31:40;15.00;37.70
21891;DHT22;11110;52.386;16.940;2023-04-06T04:34:15;15.00;37.70
21891;DHT22;11110;52.386;16.940;2023-04-06T04:36:45;15.00;37.60
21891;DHT22;11110;52.386;16.940;2023-04-06T04:39:22;15.00;37.70
21891;DHT22;11110;52.386;16.940;2023-04-06T04:41:57;15.00;37.80
21891;DHT22;11110;52.386;16.940;2023-04-06T04:44:27;14.90;37.90
21891;DHT22;11110;52.386;16.940;2023-04-06T04:46:55;14.90;38.00
21891;DHT22;11110;52.386;16.940;2023-04-06T04:49:33;15.00;38.00
21891;DHT22;11110;52.386;16.940;2023-04-06T04:52:03;15.00;37.90
21891;DHT22;11110;52.386;16.940;2023-04-06T04:54:51;14.90;37.80
21891;DHT22;11110;52.386;16.940;2023-04-06T04:57:24;15.00;37.80
21891;DHT22;11110;52.386;16.940;2023-04-06T04:59:53;15.00;38.00
21891;DHT22;11110;52.386;16.940;2023-04-06T05:02:24;15.00;38.10
21891;DHT22;11110;52.386;16.940;2023-04-06T05:05:10;15.00;38.20
21891;DHT22;11110;52.386;16.940;2023-04-06T05:07:41;14.90;38.30
21891;DHT22;11110;52.386;16.940;2023-04-06T05:10:17;14.90;38.10
21891;DHT22;11110;52.386;16.940;2023-04-06T05:12:52;14.90;38.00
21891;DHT22;11110;52.386;16.940;2023-04-06T05:15:21;14.90;38.00
21891;DHT22;11110;52.386;16.940;2023-04-06T05:17:54;14.90;38.10
21891;DHT22;11110;52.386;16.940;2023-04-06T05:20:30;14.90;38.20
21891;DHT22;11110;52.386;16.940;2023-04-06T05:23:00;15.00;38.40
21891;DHT22;11110;52.386;16.940;2023-04-06T05:25:30;14.90;38.50
21891;DHT22;11110;52.386;16.940;2023-04-06T05:28:09;15.00;38.70
21891;DHT22;11110;52.386;16.940;2023-04-06T05:30:42;15.00;38.60
21891;DHT22;11110;52.386;16.940;2023-04-06T05:33:12;15.00;38.50
21891;DHT22;11110;52.386;16.940;2023-04-06T05:36:01;15.00;38.50
21891;DHT22;11110;52.386;16.940;2023-04-06T05:38:32;15.10;38.60
21891;DHT22;11110;52.386;16.940;2023-04-06T05:41:09;15.10;38.30
21891;DHT22;11110;52.386;16.940;2023-04-06T05:43:39;15.20;38.00
21891;DHT22;11110;52.386;16.940;2023-04-06T05:46:08;15.20;37.90
21891;DHT22;11110;52.386;16.940;2023-04-06T05:48:37;15.20;37.90
21891;DHT22;11110;52.386;16.940;2023-04-06T05:51:06;15.30;38.00
21891;DHT22;11110;52.386;16.940;2023-04-06T05:53:50;15.30;38.00
21891;DHT22;11110;52.386;16.940;2023-04-06T05:56:18;15.40;37.90
21891;DHT22;11110;52.386;16.940;2023-04-06T05:58:47;15.40;37.70
21891;DHT22;11110;52.386;16.940;2023-04-06T06:01:22;15.50;37.40
21891;DHT22;11110;52.386;16.940;2023-04-06T06:03:51;15.50;37.10
21891;DHT22;11110;52.386;16.940;2023-04-06T06:06:20;15.60;37.00
21891;DHT22;11110;52.386;16.940;2023-04-06T06:09:04;15.60;36.90
21891;DHT22;11110;52.386;16.940;2023-04-06T06:11:39;15.70;36.80
21891;DHT22;11110;52.386;16.940;2023-04-06T06:14:10;15.70;36.70
21891;DHT22;11110;52.386;16.940;2023-04-06T06:16:40;15.80;36.60
21891;DHT22;11110;52.386;16.940;2023-04-06T06:19:11;15.80;36.90
21891;DHT22;11110;52.386;16.940;2023-04-06T06:21:40;15.90;36.10
21891;DHT22;11110;52.386;16.940;2023-04-06T06:24:10;16.00;35.90
21891;DHT22;11110;52.386;16.940;2023-04-06T06:26:39;16.00;35.50
21891;DHT22;11110;52.386;16.940;2023-04-06T06:29:08;16.10;35.20
21891;DHT22;11110;52.386;16.940;2023-04-06T06:31:39;16.10;35.10
21891;DHT22;11110;52.386;16.940;2023-04-06T06:34:07;16.20;35.10
21891;DHT22;11110;52.386;16.940;2023-04-06T06:36:37;16.30;35.00
21891;DHT22;11110;52.386;16.940;2023-04-06T06:39:10;16.30;34.80
21891;DHT22;11110;52.386;16.940;2023-04-06T06:41:39;16.40;34.70
21891;DHT22;11110;52.386;16.940;2023-04-06T06:44:08;16.40;34.70
21891;DHT22;11110;52.386;16.940;2023-04-06T06:46:38;16.50;34.50
21891;DHT22;11110;52.386;16.940;2023-04-06T06:49:06;16.50;34.30
21891;DHT22;11110;52.386;16.940;2023-04-06T06:51:35;16.60;34.30
21891;DHT22;11110;52.386;16.940;2023-04-06T06:54:04;16.60;34.10
21891;DHT22;11110;52.386;16.940;2023-04-06T06:56:34;16.70;33.80
21891;DHT22;11110;52.386;16.940;2023-04-06T06:59:06;16.70;33.80
21891;DHT22;11110;52.386;16.940;2023-04-06T07:01:37;16.70;33.70
21891;DHT22;11110;52.386;16.940;2023-04-06T07:04:06;16.90;33.70
21891;DHT22;11110;52.386;16.940;2023-04-06T07:06:36;16.80;33.50
21891;DHT22;11110;52.386;16.940;2023-04-06T07:09:06;16.90;33.20
21891;DHT22;11110;52.386;16.940;2023-04-06T07:11:36;16.90;33.30
21891;DHT22;11110;52.386;16.940;2023-04-06T07:14:05;17.00;33.00
21891;DHT22;11110;52.386;16.940;2023-04-06T07:16:34;17.10;32.50
21891;DHT22;11110;52.386;16.940;2023-04-06T07:19:03;17.10;32.40
21891;DHT22;11110;52.386;16.940;2023-04-06T07:21:32;17.20;32.40
21891;DHT22;11110;52.386;16.940;2023-04-06T07:24:00;17.20;32.50
21891;DHT22;11110;52.386;16.940;2023-04-06T07:26:29;17.30;32.10
21891;DHT22;11110;52.386;16.940;2023-04-06T07:28:59;17.30;32.10
21891;DHT22;11110;52.386;16.940;2023-04-06T07:31:28;17.30;32.10
21891;DHT22;11110;52.386;16.940;2023-04-06T07:33:56;17.30;32.20
21891;DHT22;11110;52.386;16.940;2023-04-06T07:36:25;17.30;31.30
21891;DHT22;11110;52.386;16.940;2023-04-06T07:38:54;17.40;31.10
21891;DHT22;11110;52.386;16.940;2023-04-06T07:41:23;17.50;31.10
21891;DHT22;11110;52.386;16.940;2023-04-06T07:43:52;17.50;30.70
21891;DHT22;11110;52.386;16.940;2023-04-06T07:46:22;17.60;30.80
21891;DHT22;11110;52.386;16.940;2023-04-06T07:48:52;17.60;30.70
21891;DHT22;11110;52.386;16.940;2023-04-06T07:51:21;17.70;30.70
21891;DHT22;11110;52.386;16.940;2023-04-06T07:53:50;17.80;31.10
21891;DHT22;11110;52.386;16.940;2023-04-06T07:56:19;17.80;30.30
21891;DHT22;11110;52.386;16.940;2023-04-06T07:58:48;17.80;30.40
21891;DHT22;11110;52.386;16.940;2023-04-06T08:01:22;17.90;31.10
21891;DHT22;11110;52.386;16.940;2023-04-06T08:03:51;17.90;30.30
21891;DHT22;11110;52.386;16.940;2023-04-06T08:06:20;18.00;30.50
21891;DHT22;11110;52.386;16.940;2023-04-06T08:08:48;18.00;30.50
21891;DHT22;11110;52.386;16.940;2023-04-06T08:11:17;18.00;30.20
21891;DHT22;11110;52.386;16.940;2023-04-06T08:13:45;18.10;30.60
21891;DHT22;11110;52.386;16.940;2023-04-06T08:16:14;18.10;30.40
21891;DHT22;11110;52.386;16.940;2023-04-06T08:18:44;18.20;30.20
21891;DHT22;11110;52.386;16.940;2023-04-06T08:21:13;18.30;29.90
21891;DHT22;11110;52.386;16.940;2023-04-06T08:23:41;18.30;30.00
21891;DHT22;11110;52.386;16.940;2023-04-06T08:26:10;18.30;30.40
21891;DHT22;11110;52.386;16.940;2023-04-06T08:28:39;18.30;30.70
21891;DHT22;11110;52.386;16.940;2023-04-06T08:31:07;18.20;30.40
21891;DHT22;11110;52.386;16.940;2023-04-06T08:33:36;18.30;30.00
21891;DHT22;11110;52.386;16.940;2023-04-06T08:36:09;18.30;30.10
21891;DHT22;11110;52.386;16.940;2023-04-06T08:38:38;18.30;30.20
21891;DHT22;11110;52.386;16.940;2023-04-06T08:41:08;18.40;30.20
21891;DHT22;11110;52.386;16.940;2023-04-06T08:43:42;18.50;30.00
21891;DHT22;11110;52.386;16.940;2023-04-06T08:46:12;18.60;29.80
21891;DHT22;11110;52.386;16.940;2023-04-06T08:48:42;18.60;29.50
21891;DHT22;11110;52.386;16.940;2023-04-06T08:51:12;18.60;29.20
21891;DHT22;11110;52.386;16.940;2023-04-06T08:53:41;18.60;29.10
21891;DHT22;11110;52.386;16.940;2023-04-06T08:56:10;18.60;28.90
21891;DHT22;11110;52.386;16.940;2023-04-06T08:58:40;18.70;28.50
21891;DHT22;11110;52.386;16.940;2023-04-06T09:01:11;18.60;28.90
21891;DHT22;11110;52.386;16.940;2023-04-06T09:03:43;18.70;28.80
21891;DHT22;11110;52.386;16.940;2023-04-06T09:06:13;18.80;28.40
21891;DHT22;11110;52.386;16.940;2023-04-06T09:08:42;18.70;28.40
21891;DHT22;11110;52.386;16.940;2023-04-06T09:11:11;18.70;28.40
21891;DHT22;11110;52.386;16.940;2023-04-06T09:13:46;18.80;28.50
21891;DHT22;11110;52.386;16.940;2023-04-06T09:16:16;18.90;28.50
21891;DHT22;11110;52.386;16.940;2023-04-06T09:18:45;18.90;28.60
21891;DHT22;11110;52.386;16.940;2023-04-06T09:21:17;19.00;28.60
21891;DHT22;11110;52.386;16.940;2023-04-06T09:23:58;19.00;29.20
21891;DHT22;11110;52.386;16.940;2023-04-06T09:26:27;19.20;29.00
21891;DHT22;11110;52.386;16.940;2023-04-06T09:28:58;19.10;29.10
21891;DHT22;11110;52.386;16.940;2023-04-06T09:31:29;19.20;28.90
21891;DHT22;11110;52.386;16.940;2023-04-06T09:34:00;19.20;29.50
21891;DHT22;11110;52.386;16.940;2023-04-06T09:36:31;19.30;28.60
21891;DHT22;11110;52.386;16.940;2023-04-06T09:39:02;19.40;28.80
21891;DHT22;11110;52.386;16.940;2023-04-06T09:41:33;19.50;28.60
21891;DHT22;11110;52.386;16.940;2023-04-06T09:44:04;19.50;28.30
21891;DHT22;11110;52.386;16.940;2023-04-06T09:46:36;19.60;28.10
21891;DHT22;11110;52.386;16.940;2023-04-06T09:49:26;19.60;28.00
21891;DHT22;11110;52.386;16.940;2023-04-06T09:51:59;19.60;28.00
21891;DHT22;11110;52.386;16.940;2023-04-06T09:54:29;19.70;27.90
21891;DHT22;11110;52.386;16.940;2023-04-06T09:57:06;19.60;28.20
21891;DHT22;11110;52.386;16.940;2023-04-06T09:59:42;19.60;28.40
21891;DHT22;11110;52.386;16.940;2023-04-06T10:02:20;19.70;28.80
21891;DHT22;11110;52.386;16.940;2023-04-06T10:04:56;19.80;29.00
21891;DHT22;11110;52.386;16.940;2023-04-06T10:07:30;19.90;28.70
21891;DHT22;11110;52.386;16.940;2023-04-06T10:09:59;20.00;28.80
21891;DHT22;11110;52.386;16.940;2023-04-06T10:12:29;20.10;28.70
21891;DHT22;11110;52.386;16.940;2023-04-06T10:14:58;20.20;28.20
21891;DHT22;11110;52.386;16.940;2023-04-06T10:17:27;20.20;28.10
21891;DHT22;11110;52.386;16.940;2023-04-06T10:20:01;20.30;28.30
21891;DHT22;11110;52.386;16.940;2023-04-06T10:22:38;20.30;28.20
21891;DHT22;11110;52.386;16.940;2023-04-06T10:25:08;20.40;27.90
21891;DHT22;11110;52.386;16.940;2023-04-06T10:27:37;20.50;27.50
21891;DHT22;11110;52.386;16.940;2023-04-06T10:30:07;20.60;27.30
21891;DHT22;11110;52.386;16.940;2023-04-06T10:32:37;20.70;27.00
21891;DHT22;11110;52.386;16.940;2023-04-06T10:35:10;20.70;27.40
21891;DHT22;11110;52.386;16.940;2023-04-06T10:37:50;20.80;26.70
21891;DHT22;11110;52.386;16.940;2023-04-06T10:40:23;20.60;27.30
21891;DHT22;11110;52.386;16.940;2023-04-06T10:42:54;20.60;26.40
21891;DHT22;11110;52.386;16.940;2023-04-06T10:45:25;20.50;26.70
21891;DHT22;11110;52.386;16.940;2023-04-06T10:47:54;20.50;26.90
21891;DHT22;11110;52.386;16.940;2023-04-06T10:50:23;20.50;26.60
21891;DHT22;11110;52.386;16.940;2023-04-06T10:53:02;20.70;26.90
21891;DHT22;11110;52.386;16.940;2023-04-06T10:55:31;20.80;27.30
21891;DHT22;11110;52.386;16.940;2023-04-06T10:58:00;20.80;27.10
21891;DHT22;11110;52.386;16.940;2023-04-06T11:00:29;20.90;26.30
21891;DHT22;11110;52.386;16.940;2023-04-06T11:03:16;21.00;26.80
21891;DHT22;11110;52.386;16.940;2023-04-06T11:05:45;21.00;27.10
21891;DHT22;11110;52.386;16.940;2023-04-06T11:08:26;21.00;26.60
21891;DHT22;11110;52.386;16.940;2023-04-06T11:11:05;21.00;26.50
21891;DHT22;11110;52.386;16.940;2023-04-06T11:13:42;20.90;26.50
21891;DHT22;11110;52.386;16.940;2023-04-06T11:16:15;20.80;26.20
21891;DHT22;11110;52.386;16.940;2023-04-06T11:18:52;20.80;26.10
21891;DHT22;11110;52.386;16.940;2023-04-06T11:21:32;20.80;25.80
21891;DHT22;11110;52.386;16.940;2023-04-06T11:24:06;21.30;25.10
21891;DHT22;11110;52.386;16.940;2023-04-06T11:26:39;21.00;25.30
21891;DHT22;11110;52.386;16.940;2023-04-06T11:29:08;21.10;24.80
21891;DHT22;11110;52.386;16.940;2023-04-06T11:31:40;21.10;24.90
21891;DHT22;11110;52.386;16.940;2023-04-06T11:34:10;20.80;25.50
21891;DHT22;11110;52.386;16.940;2023-04-06T11:36:43;20.70;25.40
21891;DHT22;11110;52.386;16.940;2023-04-06T11:39:13;20.80;25.50
21891;DHT22;11110;52.386;16.940;2023-04-06T11:41:47;20.80;25.30
21891;DHT22;11110;52.386;16.940;2023-04-06T11:44:28;20.80;25.60
21891;DHT22;11110;52.386;16.940;2023-04-06T11:46:57;21.00;25.60
21891;DHT22;11110;52.386;16.940;2023-04-06T11:49:27;21.00;25.50
21891;DHT22;11110;52.386;16.940;2023-04-06T11:51:56;20.90;25.70
21891;DHT22;11110;52.386;16.940;2023-04-06T11:54:33;20.90;25.70
21891;DHT22;11110;52.386;16.940;2023-04-06T11:57:03;21.00;25.60
21891;DHT22;11110;52.386;16.940;2023-04-06T11:59:32;20.80;26.00
21891;DHT22;11110;52.386;16.940;2023-04-06T12:02:01;20.60;26.20
21891;DHT22;11110;52.386;16.940;2023-04-06T12:04:30;20.70;26.10
21891;DHT22;11110;52.386;16.940;2023-04-06T12:06:59;20.70;25.90
21891;DHT22;11110;52.386;16.940;2023-04-06T12:09:28;20.80;25.90
21891;DHT22;11110;52.386;16.940;2023-04-06T12:11:58;20.70;26.50
21891;DHT22;11110;52.386;16.940;2023-04-06T12:14:27;20.80;25.90
21891;DHT22;11110;52.386;16.940;2023-04-06T12:16:55;20.90;25.70
21891;DHT22;11110;52.386;16.940;2023-04-06T12:19:24;20.90;25.60
21891;DHT22;11110;52.386;16.940;2023-04-06T12:21:53;21.00;25.60
21891;DHT22;11110;52.386;16.940;2023-04-06T12:24:22;20.80;26.30
21891;DHT22;11110;52.386;16.940;2023-04-06T12:26:50;20.90;26.40
21891;DHT22;11110;52.386;16.940;2023-04-06T12:29:30;20.90;26.00
21891;DHT22;11110;52.386;16.940;2023-04-06T12:31:59;21.10;26.00
21891;DHT22;11110;52.386;16.940;2023-04-06T12:34:29;21.10;26.00
21891;DHT22;11110;52.386;16.940;2023-04-06T12:36:57;21.10;25.70
21891;DHT22;11110;52.386;16.940;2023-04-06T12:39:27;21.20;25.90
21891;DHT22;11110;52.386;16.940;2023-04-06T12:41:56;21.20;25.80
21891;DHT22;11110;52.386;16.940;2023-04-06T12:44:25;21.10;25.70
21891;DHT22;11110;52.386;16.940;2023-04-06T12:46:55;21.00;25.60
21891;DHT22;11110;52.386;16.940;2023-04-06T12:49:24;21.00;25.70
21891;DHT22;11110;52.386;16.940;2023-04-06T12:51:52;21.00;25.80
21891;DHT22;11110;52.386;16.940;2023-04-06T12:54:21;21.10;25.70
21891;DHT22;11110;52.386;16.940;2023-04-06T12:56:49;21.10;25.70
21891;DHT22;11110;52.386;16.940;2023-04-06T12:59:18;21.10;25.80
21891;DHT22;11110;52.386;16.940;2023-04-06T13:01:47;21.10;25.80
21891;DHT22;11110;52.386;16.940;2023-04-06T13:04:18;21.20;25.90
21891;DHT22;11110;52.386;16.940;2023-04-06T13:06:46;21.40;25.80
21891;DHT22;11110;52.386;16.940;2023-04-06T13:09:15;21.50;25.80
21891;DHT22;11110;52.386;16.940;2023-04-06T13:11:43;21.50;25.80
21891;DHT22;11110;52.386;16.940;2023-04-06T13:14:13;21.50;25.50
21891;DHT22;11110;52.386;16.940;2023-04-06T13:16:42;21.60;25.70
21891;DHT22;11110;52.386;16.940;2023-04-06T13:19:11;21.70;25.60
21891;DHT22;11110;52.386;16.940;2023-04-06T13:21:41;21.70;25.40
21891;DHT22;11110;52.386;16.940;2023-04-06T13:24:09;21.80;25.50
21891;DHT22;11110;52.386;16.940;2023-04-06T13:26:37;21.70;25.50
21891;DHT22;11110;52.386;16.940;2023-04-06T13:29:06;21.90;25.70
21891;DHT22;11110;52.386;16.940;2023-04-06T13:31:35;22.00;25.60
21891;DHT22;11110;52.386;16.940;2023-04-06T13:34:04;22.00;25.80
21891;DHT22;11110;52.386;16.940;2023-04-06T13:36:32;22.10;25.40
21891;DHT22;11110;52.386;16.940;2023-04-06T13:39:02;22.20;25.30
21891;DHT22;11110;52.386;16.940;2023-04-06T13:41:30;22.10;25.50
21891;DHT22;11110;52.386;16.940;2023-04-06T13:43:59;22.00;25.30
21891;DHT22;11110;52.386;16.940;2023-04-06T13:46:28;22.00;25.40
21891;DHT22;11110;52.386;16.940;2023-04-06T13:48:56;22.00;25.40
21891;DHT22;11110;52.386;16.940;2023-04-06T13:51:25;22.10;25.20
21891;DHT22;11110;52.386;16.940;2023-04-06T13:53:55;22.10;25.30
21891;DHT22;11110;52.386;16.940;2023-04-06T13:56:25;22.20;25.30
21891;DHT22;11110;52.386;16.940;2023-04-06T13:58:53;22.20;25.50
21891;DHT22;11110;52.386;16.940;2023-04-06T14:01:23;22.20;25.90
21891;DHT22;11110;52.386;16.940;2023-04-06T14:03:53;22.40;25.90
21891;DHT22;11110;52.386;16.940;2023-04-06T14:06:22;22.50;25.70
21891;DHT22;11110;52.386;16.940;2023-04-06T14:08:53;22.60;25.30
21891;DHT22;11110;52.386;16.940;2023-04-06T14:11:21;22.30;25.40
21891;DHT22;11110;52.386;16.940;2023-04-06T14:13:51;22.30;25.50
21891;DHT22;11110;52.386;16.940;2023-04-06T14:16:23;22.30;25.50
21891;DHT22;11110;52.386;16.940;2023-04-06T14:18:52;22.30;25.50
21891;DHT22;11110;52.386;16.940;2023-04-06T14:21:22;22.20;25.50
21891;DHT22;11110;52.386;16.940;2023-04-06T14:23:51;22.10;25.50
21891;DHT22;11110;52.386;16.940;2023-04-06T14:26:19;22.00;25.70
21891;DHT22;11110;52.386;16.940;2023-04-06T14:28:48;22.00;25.60
21891;DHT22;11110;52.386;16.940;2023-04-06T14:31:17;22.10;25.90
21891;DHT22;11110;52.386;16.940;2023-04-06T14:33:46;22.10;25.80
21891;DHT22;11110;52.386;16.940;2023-04-06T14:36:15;22.10;25.80
21891;DHT22;11110;52.386;16.940;2023-04-06T14:38:43;22.00;25.80
21891;DHT22;11110;52.386;16.940;2023-04-06T14:41:16;22.00;25.80
21891;DHT22;11110;52.386;16.940;2023-04-06T14:43:46;22.00;25.90
21891;DHT22;11110;52.386;16.940;2023-04-06T14:46:15;22.00;26.00
21891;DHT22;11110;52.386;16.940;2023-04-06T14:48:46;22.10;26.10
21891;DHT22;11110;52.386;16.940;2023-04-06T14:51:14;22.20;26.00
21891;DHT22;11110;52.386;16.940;2023-04-06T14:53:44;22.30;25.90
21891;DHT22;11110;52.386;16.940;2023-04-06T14:56:13;22.30;25.80
21891;DHT22;11110;52.386;16.940;2023-04-06T14:58:41;22.30;25.80
21891;DHT22;11110;52.386;16.940;2023-04-06T15:01:10;22.30;25.60
21891;DHT22;11110;52.386;16.940;2023-04-06T15:03:38;22.30;26.00
21891;DHT22;11110;52.386;16.940;2023-04-06T15:06:12;22.20;25.70
21891;DHT22;11110;52.386;16.940;2023-04-06T15:08:45;22.20;26.10
21891;DHT22;11110;52.386;16.940;2023-04-06T15:11:20;22.20;25.70
21891;DHT22;11110;52.386;16.940;2023-04-06T15:13:49;22.10;25.70
21891;DHT22;11110;52.386;16.940;2023-04-06T15:16:19;22.20;25.80
21891;DHT22;11110;52.386;16.940;2023-04-06T15:18:48;22.40;25.90
21891;DHT22;11110;52.386;16.940;2023-04-06T15:21:18;22.50;25.70
21891;DHT22;11110;52.386;16.940;2023-04-06T15:23:49;22.50;25.50
21891;DHT22;11110;52.386;16.940;2023-04-06T15:26:18;22.50;25.60
21891;DHT22;11110;52.386;16.940;2023-04-06T15:28:50;22.50;25.60
21891;DHT22;11110;52.386;16.940;2023-04-06T15:31:19;22.50;25.50
21891;DHT22;11110;52.386;16.940;2023-04-06T15:34:03;22.50;25.50
21891;DHT22;11110;52.386;16.940;2023-04-06T15:36:38;22.50;25.50
21891;DHT22;11110;52.386;16.940;2023-04-06T15:39:10;22.60;26.00